Malone, FL

3:30 PM CDT on September 30, 2014 (GMT -0500)
Marianna Municipal | Change Station
CLOSE
Current Station
Airport
Location: Marianna,
Elevation: 112 ft
Nearby Weather Stations

Elev 112 ft 30.84 °N, 85.18 °W | Updated 3 minutes ago

Overcast
Overcast
79 °F
Feels Like 79 °F
N
8
Wind Variable Wind from North

Today
High -- | Low -- °F
--% Chance of Precip.
Yesterday
High -- | Low -- °F
Precip. -- in
6:33 AM 6:27 PM
Waxing Crescent, 40% visible
Pressure 29.86 in
Visibility 10.0 miles
Clouds Overcast 3100 ft
Dew Point 69 °F
Humidity 72%
Rainfall 0.00 in
Snow Depth Not available.
UV 1 out of 12
Pollen 7.70 out of 12
Air Quality Not available.
Flu Activity Not available.
SPECI KMAI 302027Z AUTO 35007KT 10SM OVC031 26/21 A2986 RMK AO2 T02610206

More Conditions Fewer Conditions

Pressure 29.86 in
Visibility 10.0 miles
Clouds Overcast 3100 ft
Dew Point 69 °F
Humidity 72%
Rainfall 0.00 in
Snow Depth Not available.
UV 1 out of 12
Pollen 7.70 out of 12
Air Quality Not available.
Flu Activity Not available.
SPECI KMAI 302027Z AUTO 35007KT 10SM OVC031 26/21 A2986 RMK AO2 T02610206

More Conditions Fewer Conditions

10-Day Weather Forecast

Almanac

Astronomy

Sep. 30, 2014 Rise Set
Actual Time 6:33 AM CDT 6:27 PM CDT
Civil Twilight 6:09 AM CDT 6:51 PM CDT
Nautical Twilight 5:41 AM CDT 7:19 PM CDT
Astronomical Twilight 5:13 AM CDT 7:47 PM CDT
Moon 12:23 PM CDT 11:13 PM CDT
Length of Visible Light 12h 41m
Length of Day
11h 53m
Tomorrow will be 1m 51s shorter.
Waxing Crescent, 40% of the Moon is Illuminated
Today
Waxing Crescent
Oct 1
First Quarter
Oct 8
Full
Oct 15
Last Quarter
Oct 23
New

Today's Extremes

State Highs State Lows

Community

WunderPhotos

Upload Photos

1,757,743 photos uploaded!

Nearby

Snow Depth

Station Depth Elevation
No new snow has been reported.

Earthquake Activity

City Distance Mag. Time & Date
No recent earthquake activity has been reported nearby.
Minimum magnitude displayed is 2.5.

Coastal Water Temperatures

Place Temperature
No Stations Reporting

Nearby Weather Stations